M I D A S
Marine Information and Data Acquisition System
Tripno 2290 of the Zeeleeuw from 2012-04-16 07:19:15 to 2012-04-16 17:02:20
Back to CruiseResearch ActivitiesStationsMapUnderway DataData graphs

EquipmentUnitsComment
TimeDGPSUTC
LatitudeDGPSDM.mWGS84
LongitudeDGPSDM.mWGS84
HeadingGyrodeg 
SOGDGPSknotsSpeed over ground
COGDGPSdegCourse over ground
DepthEcho soundermeters200 kHz
Missing or incorrect values are displayed as -999
Navigation data collected by the RV Zeeleeuw from 2012-04-16 05:55:52 to 2012-04-16 17:18:31
Time Latitude Longitude Heading SOG COG Depth
2012-04-16 05:56:58 51°13.637 2°56.017 125.4 -999 161 -999
2012-04-16 05:57:57 51°13.637 2°56.018 125.5 -999 131 -999
2012-04-16 05:58:58 51°13.638 2°56.018 125.5 -999 274 -999
2012-04-16 05:59:58 51°13.637 2°56.019 125.3 0.1 275 -999
2012-04-16 06:00:58 51°13.637 2°56.019 125.3 0.1 274 -999
2012-04-16 06:01:57 51°13.637 2°56.021 125.4 0.2 110 -999
2012-04-16 06:02:57 51°13.636 2°56.019 125.4 -999 229 -999
2012-04-16 06:03:57 51°13.636 2°56.02 125.4 -999 340 -999
2012-04-16 06:04:58 51°13.636 2°56.02 125.3 0.1 320 -999
2012-04-16 06:05:58 51°13.637 2°56.019 125.3 0.1 300 -999
2012-04-16 06:06:57 51°13.637 2°56.02 125.3 0.2 122 -999
2012-04-16 06:07:57 51°13.637 2°56.02 125.2 0.1 168 -999
2012-04-16 06:08:57 51°13.636 2°56.019 125.3 0.1 238 -999
2012-04-16 06:09:57 51°13.636 2°56.018 125.4 0.1 3 -999
2012-04-16 06:10:57 51°13.635 2°56.019 125.4 0.2 122 -999
2012-04-16 06:11:57 51°13.636 2°56.019 125.2 0.1 120 -999
2012-04-16 06:12:57 51°13.636 2°56.017 125.3 0.4 309 -999
2012-04-16 06:13:57 51°13.636 2°56.019 125.2 -999 302 -999
2012-04-16 06:14:57 51°13.636 2°56.019 125 0.1 135 -999
2012-04-16 06:15:57 51°13.634 2°56.018 125 0.1 119 -999
2012-04-16 06:16:57 51°13.633 2°56.018 124.9 0.3 128 -999
2012-04-16 06:17:57 51°13.635 2°56.019 124.9 -999 228 -999
2012-04-16 06:18:57 51°13.636 2°56.019 125 -999 130 -999
2012-04-16 06:19:57 51°13.635 2°56.02 125 0.1 127 -999
2012-04-16 06:20:57 51°13.635 2°56.019 124.9 -999 132 -999
2012-04-16 06:21:57 51°13.635 2°56.02 125 0.1 169 -999
2012-04-16 06:22:57 51°13.635 2°56.02 125 0.1 132 -999
2012-04-16 06:23:57 51°13.635 2°56.019 125 0.2 164 -999
2012-04-16 06:24:57 51°13.635 2°56.02 124.9 -999 141 -999
2012-04-16 06:25:58 51°13.634 2°56.019 125 0.1 184 -999
2012-04-16 06:26:57 51°13.635 2°56.019 125.2 0.1 211 -999
2012-04-16 06:27:58 51°13.635 2°56.019 125.3 -999 322 -999
2012-04-16 06:28:57 51°13.636 2°56.019 125.4 -999 74 -999
2012-04-16 06:29:57 51°13.636 2°56.02 125.9 0.1 206 -999
2012-04-16 06:30:57 51°13.637 2°56.02 125.3 0.1 334 -999
2012-04-16 06:31:57 51°13.637 2°56.019 125.2 0.2 340 -999
2012-04-16 06:32:57 51°13.636 2°56.019 125 0.1 325 -999
2012-04-16 06:33:57 51°13.636 2°56.019 125.2 0.1 177 -999
2012-04-16 06:34:58 51°13.637 2°56.019 125.2 -999 337 -999
2012-04-16 06:35:57 51°13.636 2°56.019 124.9 0.1 329 -999
2012-04-16 06:36:58 51°13.636 2°56.019 125 0.2 333 -999
2012-04-16 06:37:57 51°13.636 2°56.019 124.9 -999 279 -999
2012-04-16 06:38:57 51°13.635 2°56.019 125.1 0.1 185 -999
2012-04-16 06:39:57 51°13.636 2°56.019 125.1 0.2 106 -999
2012-04-16 06:40:57 51°13.636 2°56.019 125 -999 141 -999
2012-04-16 06:41:57 51°13.636 2°56.019 125 -999 244 -999
2012-04-16 06:42:57 51°13.636 2°56.019 124.9 0.1 115 -999
2012-04-16 06:43:57 51°13.636 2°56.019 125 -999 7 -999
2012-04-16 06:44:57 51°13.636 2°56.019 125.3 -999 10 -999
2012-04-16 06:45:58 51°13.636 2°56.02 125.2 -999 77 -999
2012-04-16 06:46:57 51°13.636 2°56.019 124.9 -999 211 -999
2012-04-16 06:47:57 51°13.637 2°56.018 124.8 0.1 224 -999
2012-04-16 06:48:57 51°13.636 2°56.018 124.8 -999 282 -999
2012-04-16 06:49:57 51°13.636 2°56.018 124.8 -999 268 -999
2012-04-16 06:50:57 51°13.636 2°56.018 124.9 0.1 67 -999
2012-04-16 06:51:57 51°13.636 2°56.019 124.9 0.1 62 -999
2012-04-16 06:52:58 51°13.635 2°56.019 124.9 -999 236 -999
2012-04-16 06:53:57 51°13.635 2°56.019 124.8 0.1 36 -999
2012-04-16 06:54:58 51°13.636 2°56.019 124.7 -999 349 -999
2012-04-16 06:55:57 51°13.636 2°56.019 124.7 -999 54 -999
2012-04-16 06:56:57 51°13.636 2°56.018 124.7 -999 249 -999
2012-04-16 06:57:57 51°13.636 2°56.018 124.9 -999 259 -999
2012-04-16 06:58:57 51°13.636 2°56.018 124.7 -999 56 -999
2012-04-16 06:59:57 51°13.636 2°56.019 124.4 -999 232 -999
2012-04-16 07:00:57 51°13.636 2°56.019 124.8 -999 61 -999
2012-04-16 07:01:57 51°13.636 2°56.019 124.9 -999 215 -999
2012-04-16 07:02:57 51°13.636 2°56.02 125 -999 213 -999
2012-04-16 07:03:58 51°13.636 2°56.019 125.1 -999 142 -999
2012-04-16 07:04:57 51°13.636 2°56.019 125.5 0.1 263 -999
2012-04-16 07:05:57 51°13.635 2°56.02 125.6 -999 69 -999
2012-04-16 07:06:57 51°13.635 2°56.019 123.5 0.1 231 -999
2012-04-16 07:07:57 51°13.636 2°56.019 124.4 0.1 101 -999
2012-04-16 07:08:57 51°13.636 2°56.02 125.4 -999 284 -999
2012-04-16 07:09:57 51°13.635 2°56.019 129.8 0.1 229 -999
2012-04-16 07:10:57 51°13.634 2°56.019 113.8 0.2 201 9.9
2012-04-16 07:11:57 51°13.642 2°55.976 108.3 3.7 288 -999
2012-04-16 07:12:57 51°13.666 2°55.878 122.4 4.5 299 -999
2012-04-16 07:13:57 51°13.712 2°55.775 130.3 4.7 308 -999
2012-04-16 07:14:57 51°13.768 2°55.679 141.1 5.1 318 -999
2012-04-16 07:15:57 51°13.841 2°55.611 161.6 4.9 339 -999
2012-04-16 07:16:57 51°13.911 2°55.597 194.3 3.6 11 -999
2012-04-16 07:17:57 51°13.952 2°55.634 231 0.3 45 -999
2012-04-16 07:18:57 51°13.971 2°55.567 319.2 4.8 319 12.4
2012-04-16 07:19:57 51°14.065 2°55.47 333.1 7.9 329 -999
2012-04-16 07:20:57 51°14.191 2°55.359 333.9 9 329 12.3
2012-04-16 07:21:57 51°14.322 2°55.236 331.6 9.1 329 12.3
2012-04-16 07:22:57 51°14.456 2°55.099 331 10.4 328 12.3
2012-04-16 07:23:57 51°14.615 2°54.947 324.1 11.6 324 -999
2012-04-16 07:24:56 51°14.76 2°54.762 320.7 11.4 321 13.5
2012-04-16 07:25:54 51°14.902 2°54.565 320 11.8 319 13.9
2012-04-16 07:26:54 51°15.05 2°54.376 324.5 11.3 324 12.8
2012-04-16 07:27:54 51°15.2 2°54.2 321.8 11.4 321 13.6
2012-04-16 07:28:54 51°15.347 2°54.009 323.7 11.4 323 13.6
2012-04-16 07:29:54 51°15.498 2°53.832 324.8 11.4 323 13.1
2012-04-16 07:30:54 51°15.652 2°53.652 326.8 11.4 327 13.6
2012-04-16 07:31:54 51°15.817 2°53.504 332.2 11.1 333 15.2
2012-04-16 07:32:54 51°15.983 2°53.358 331.8 11.7 330 14.8
2012-04-16 07:33:54 51°16.155 2°53.223 336 11.6 336 14.5
2012-04-16 07:34:54 51°16.323 2°53.083 332.4 11.5 331 14.6
2012-04-16 07:35:54 51°16.489 2°52.939 333.6 11.4 333 14.9
2012-04-16 07:36:54 51°16.66 2°52.813 335.8 11.6 335 13.6
2012-04-16 07:37:54 51°16.832 2°52.682 334 11.5 333 11.8
2012-04-16 07:38:54 51°16.998 2°52.536 333.9 11.3 334 11.7
2012-04-16 07:39:54 51°17.166 2°52.41 337.6 11.3 337 12.3
2012-04-16 07:40:54 51°17.341 2°52.296 337.8 11.2 338 12.7
2012-04-16 07:41:54 51°17.514 2°52.166 334.3 11.4 332 14.1
2012-04-16 07:42:54 51°17.681 2°52.037 336.1 11 335 13
2012-04-16 07:43:54 51°17.852 2°51.921 338.5 11.1 339 12.2
2012-04-16 07:44:54 51°18.026 2°51.799 336.9 11.3 337 13.8
2012-04-16 07:45:54 51°18.198 2°51.674 334.7 11.7 333 13.6
2012-04-16 07:46:54 51°18.367 2°51.535 335.2 11.3 333 14.3
2012-04-16 07:47:54 51°18.54 2°51.415 338.5 11.6 338 16
2012-04-16 07:48:54 51°18.718 2°51.295 336 11.5 334 16.9
2012-04-16 07:49:54 51°18.881 2°51.165 335.1 10.9 336 17.2
2012-04-16 07:50:54 51°19.052 2°51.046 337 11.3 338 -999
2012-04-16 07:51:54 51°19.23 2°50.937 338.1 11.3 338 17
2012-04-16 07:52:54 51°19.389 2°50.784 325.9 10.9 326 16
2012-04-16 07:53:54 51°19.541 2°50.619 327.5 10.9 328 15.2
2012-04-16 07:54:55 51°19.699 2°50.467 330.4 10.1 327 -999
2012-04-16 07:55:56 51°19.845 2°50.314 327.9 10.2 325 16.5
2012-04-16 07:56:56 51°19.994 2°50.163 330.3 10.9 329 16.7
2012-04-16 07:57:54 51°20.15 2°50.025 331.3 11 329 -999
2012-04-16 07:58:54 51°20.31 2°49.868 329.7 11.4 327 22.2
2012-04-16 07:59:55 51°20.469 2°49.708 328.1 10.9 328 25
2012-04-16 08:00:55 51°20.625 2°49.555 327.9 10.7 326 25
2012-04-16 08:01:54 51°20.782 2°49.404 330.8 11.6 330 25.8
2012-04-16 08:02:54 51°20.947 2°49.253 329.4 11.4 330 25.3
2012-04-16 08:03:54 51°21.112 2°49.103 329.7 11.3 331 24.4
2012-04-16 08:04:54 51°21.276 2°48.954 330.2 11.5 331 22.9
2012-04-16 08:05:56 51°21.44 2°48.799 327 10.8 328 24.5
2012-04-16 08:06:55 51°21.594 2°48.65 329.5 11.5 331 25.4
2012-04-16 08:07:54 51°21.756 2°48.516 331.6 11.1 333 26.3
2012-04-16 08:08:54 51°21.923 2°48.373 328.9 11.3 331 25.8
2012-04-16 08:09:54 51°22.081 2°48.213 326.6 11.3 328 26.2
2012-04-16 08:10:54 51°22.247 2°48.057 330.4 11.5 332 25.6
2012-04-16 08:11:54 51°22.415 2°47.913 330.2 11.6 330 21.4
2012-04-16 08:12:54 51°22.58 2°47.765 328.6 11.4 328 22
2012-04-16 08:13:54 51°22.728 2°47.579 316.7 11.3 317 21.4
2012-04-16 08:14:55 51°22.864 2°47.366 316 11.1 317 19.8
2012-04-16 08:15:54 51°23 2°47.173 319.5 10.7 319 23.8
2012-04-16 08:16:54 51°23.142 2°46.989 321.4 11.5 322 23.5
2012-04-16 08:17:54 51°23.283 2°46.793 315.6 11.4 312 28.3
2012-04-16 08:18:54 51°23.405 2°46.568 309.3 11.3 310 26.4
2012-04-16 08:19:54 51°23.527 2°46.341 312.1 11 313 29.3
2012-04-16 08:20:54 51°23.657 2°46.127 313.6 11.3 314 29.6
2012-04-16 08:21:54 51°23.789 2°45.909 313.9 11.5 314 28.8
2012-04-16 08:22:54 51°23.917 2°45.689 312.9 11.7 314 30.4
2012-04-16 08:23:54 51°24.048 2°45.469 313.1 11.4 314 28.5
2012-04-16 08:24:54 51°24.172 2°45.249 310.7 11 312 29.1
2012-04-16 08:25:54 51°24.294 2°45.017 310.9 11.6 312 28.6
2012-04-16 08:26:54 51°24.406 2°44.777 299.9 11.2 301 29.2
2012-04-16 08:27:54 51°24.486 2°44.531 296.8 8 296 29.3
2012-04-16 08:28:54 51°24.537 2°44.373 302.5 6.3 303 28.2
2012-04-16 08:29:54 51°24.584 2°44.288 311.2 5.2 310 28
2012-04-16 08:30:54 51°24.628 2°44.138 284.4 7.1 283 22
2012-04-16 08:31:54 51°24.647 2°43.982 282.4 4.4 281 25.9
2012-04-16 08:32:54 51°24.657 2°43.892 281.7 2.9 276 28
2012-04-16 08:33:54 51°24.663 2°43.827 283.5 2 279 27.8
2012-04-16 08:34:54 51°24.669 2°43.793 288.4 0.8 290 23.4
2012-04-16 08:35:54 51°24.673 2°43.774 295.5 1.1 293 24
2012-04-16 08:36:54 51°24.68 2°43.753 285.5 0.2 10 24.4
2012-04-16 08:37:54 51°24.677 2°43.755 278.1 0.4 233 25.4
2012-04-16 08:38:54 51°24.674 2°43.718 265.3 1.4 253 23
2012-04-16 08:39:54 51°24.671 2°43.706 273.4 0.1 163 25.6
2012-04-16 08:40:54 51°24.669 2°43.709 278.8 0.2 127 23.5
2012-04-16 08:41:54 51°24.666 2°43.717 282.1 0.4 92 26.5
2012-04-16 08:42:54 51°24.662 2°43.729 277.7 0.6 112 27.2
2012-04-16 08:43:54 51°24.658 2°43.745 272 0.7 107 26.7
2012-04-16 08:44:54 51°24.653 2°43.761 265.2 0.6 100 26.7
2012-04-16 08:45:54 51°24.651 2°43.758 281.5 1.2 287 26.9
2012-04-16 08:46:54 51°24.669 2°43.725 311.6 1.3 318 26
2012-04-16 08:47:54 51°24.679 2°43.715 302 0.2 113 26.1
2012-04-16 08:48:54 51°24.677 2°43.727 285.5 0.6 132 24.3
2012-04-16 08:49:54 51°24.673 2°43.742 269.1 0.7 117 25.8
2012-04-16 08:50:54 51°24.669 2°43.758 259.9 0.7 77 25.3
2012-04-16 08:51:54 51°24.663 2°43.777 259.2 0.9 127 25.7
2012-04-16 08:52:54 51°24.659 2°43.79 263.9 0.4 175 23.9
2012-04-16 08:53:54 51°24.66 2°43.776 284.4 0.8 278 25.5
2012-04-16 08:54:54 51°24.671 2°43.75 288.8 1.2 300 25.7
2012-04-16 08:55:54 51°24.671 2°43.714 267 1.5 255 23.2
2012-04-16 08:56:54 51°24.674 2°43.704 279.3 0.3 43 25.9
2012-04-16 08:57:54 51°24.674 2°43.708 288.6 0.3 131 26.3
2012-04-16 08:58:54 51°24.672 2°43.721 286 0.6 102 23.4
2012-04-16 08:59:54 51°24.668 2°43.742 275.1 1 99 26.7
2012-04-16 09:00:54 51°24.665 2°43.767 264.8 1 97 25.2
2012-04-16 09:01:54 51°24.663 2°43.795 255.8 1.1 111 23.4
2012-04-16 09:02:54 51°24.66 2°43.811 257.4 0.3 221 25.3
2012-04-16 09:03:54 51°24.656 2°43.772 270.7 2.1 271 26.2
2012-04-16 09:04:54 51°24.667 2°43.714 297.1 2.3 302 24.8
2012-04-16 09:05:54 51°24.676 2°43.701 298.8 0.4 61 26.2
2012-04-16 09:06:54 51°24.675 2°43.717 278.1 0.7 99 24.8
2012-04-16 09:07:54 51°24.672 2°43.738 257.2 1.1 120 27.1
2012-04-16 09:08:54 51°24.669 2°43.761 248.3 0.7 76 25.4
2012-04-16 09:09:54 51°24.665 2°43.786 249.5 0.8 100 24.4
2012-04-16 09:10:54 51°24.663 2°43.802 259.6 0.2 53 24.7
2012-04-16 09:11:54 51°24.666 2°43.786 286.1 1.3 300 23.9
2012-04-16 09:12:54 51°24.669 2°43.746 259 1.8 251 26.5
2012-04-16 09:13:54 51°24.675 2°43.698 284.1 1.4 265 27.1
2012-04-16 09:14:54 51°24.679 2°43.699 287.9 0.3 67 26.5
2012-04-16 09:15:54 51°24.677 2°43.716 276 0.9 97 26.3
2012-04-16 09:16:54 51°24.672 2°43.713 249.1 0.6 259 22.4
2012-04-16 09:17:54 51°24.669 2°43.71 259.9 0.1 42 23.3
2012-04-16 09:18:54 51°24.669 2°43.716 265.2 0.3 50 23.6
2012-04-16 09:19:54 51°24.668 2°43.727 271.7 0.7 137 26.4
2012-04-16 09:20:54 51°24.665 2°43.746 266.1 0.9 113 27.1
2012-04-16 09:21:54 51°24.664 2°43.768 263.6 0.8 83 24.4
2012-04-16 09:22:54 51°24.661 2°43.787 262.6 0.3 127 23.8
2012-04-16 09:23:54 51°24.666 2°43.77 288 1.4 302 24.8
2012-04-16 09:24:54 51°24.677 2°43.732 272.3 1.5 276 25.2
2012-04-16 09:25:54 51°24.67 2°43.7 250.2 0.2 198 25.3
2012-04-16 09:26:54 51°24.67 2°43.704 270 0.4 53 25.3
2012-04-16 09:27:54 51°24.67 2°43.716 275 0.4 92 22.9
2012-04-16 09:28:54 51°24.668 2°43.734 268.7 0.7 85 26.2
2012-04-16 09:29:54 51°24.665 2°43.75 263 0.6 87 26.7
2012-04-16 09:30:54 51°24.664 2°43.769 261 0.8 104 25.4
2012-04-16 09:31:54 51°24.663 2°43.786 265 0.7 112 24.4
2012-04-16 09:32:53 51°24.662 2°43.802 267.9 0.6 110 25.3
2012-04-16 09:33:54 51°24.672 2°43.782 304.4 2.3 315 24.8
2012-04-16 09:34:53 51°24.725 2°43.778 14.7 4.1 25 27
2012-04-16 09:35:54 51°24.763 2°43.888 78.5 6.7 77 22.7
2012-04-16 09:36:53 51°24.813 2°44.128 71.3 11.9 67 25.5
2012-04-16 09:37:53 51°24.886 2°44.445 72.1 12.9 70 28.3
2012-04-16 09:38:53 51°24.959 2°44.772 74.3 13.4 71 28.6
2012-04-16 09:39:53 51°25.028 2°45.104 73.6 13.3 72 29.6
2012-04-16 09:40:54 51°25.102 2°45.444 71.9 13.1 69 27.3
2012-04-16 09:41:53 51°25.171 2°45.773 74.1 13.3 72 26.8
2012-04-16 09:42:54 51°25.237 2°46.112 73.3 13.1 72 27.9
2012-04-16 09:43:53 51°25.299 2°46.44 74.8 13 75 27.9
2012-04-16 09:44:54 51°25.362 2°46.777 74.4 12.8 73 27.9
2012-04-16 09:45:53 51°25.433 2°47.098 70.2 13 71 26.8
2012-04-16 09:46:54 51°25.5 2°47.439 74.7 13 75 27.5
2012-04-16 09:47:53 51°25.565 2°47.765 74.1 13 69 27
2012-04-16 09:48:53 51°25.636 2°48.095 75.4 13.1 69 26.6
2012-04-16 09:49:53 51°25.708 2°48.431 73.3 13.5 68 26.6
2012-04-16 09:50:53 51°25.783 2°48.765 71 13.5 67 26.7
2012-04-16 09:51:54 51°25.875 2°49.098 68.4 13.3 66 26.3
2012-04-16 09:52:53 51°25.964 2°49.422 68.3 13.5 68 25.6
2012-04-16 09:53:54 51°26.051 2°49.755 69.6 13.2 68 26.1
2012-04-16 09:54:53 51°26.138 2°50.083 68.3 13.8 65 25.7
2012-04-16 09:55:53 51°26.231 2°50.416 66.9 13.7 66 26.1
2012-04-16 09:56:53 51°26.318 2°50.753 69.7 13.6 70 26.1
2012-04-16 09:57:53 51°26.407 2°51.088 68.5 13.7 67 26.2
2012-04-16 09:58:53 51°26.498 2°51.423 68.3 13.6 64 28.8
2012-04-16 09:59:53 51°26.562 2°51.664 66.8 7.1 63 28.2
2012-04-16 10:00:54 51°26.622 2°51.781 28.1 4.9 37 28.6
2012-04-16 10:01:53 51°26.688 2°51.864 26.4 4.8 31 29.4
2012-04-16 10:02:54 51°26.748 2°51.848 292.8 3 303 28.3
2012-04-16 10:03:53 51°26.736 2°51.763 254.1 4 256 27.7
2012-04-16 10:04:53 51°26.734 2°51.692 268.6 1.1 280 27.4
2012-04-16 10:05:53 51°26.736 2°51.691 260.8 0.5 110 27.4
2012-04-16 10:06:53 51°26.738 2°51.703 273.2 0.9 55 27.2
2012-04-16 10:07:53 51°26.739 2°51.722 284.5 0.6 115 28.3
2012-04-16 10:08:53 51°26.738 2°51.742 280.9 0.7 79 27.9
2012-04-16 10:09:53 51°26.737 2°51.757 281.5 0.5 92 27.5
2012-04-16 10:10:53 51°26.735 2°51.759 280.3 0.3 312 27.9
2012-04-16 10:11:53 51°26.736 2°51.755 285.7 0.1 277 27.9
2012-04-16 10:12:53 51°26.736 2°51.757 285.5 0.3 84 28
2012-04-16 10:13:53 51°26.738 2°51.757 284.3 0.3 287 28.1
2012-04-16 10:14:53 51°26.74 2°51.756 285.6 0.1 313 28.5
2012-04-16 10:15:53 51°26.742 2°51.756 285.2 0.2 285 27.8
2012-04-16 10:16:53 51°26.745 2°51.754 285.4 0.1 351 28.1
2012-04-16 10:17:53 51°26.748 2°51.754 280.2 0.3 13 28
2012-04-16 10:18:53 51°26.751 2°51.752 278.8 0.2 320 28.1
2012-04-16 10:19:53 51°26.755 2°51.75 273 0.4 335 27
2012-04-16 10:20:53 51°26.755 2°51.749 265.5 0.3 205 27.7
2012-04-16 10:21:53 51°26.756 2°51.749 262.8 0.2 159 28.5
2012-04-16 10:22:53 51°26.757 2°51.749 259.1 -999 105 28.2
2012-04-16 10:23:53 51°26.756 2°51.749 254.6 0.1 166 27.5
2012-04-16 10:24:53 51°26.757 2°51.748 256.7 0.1 164 28.4
2012-04-16 10:25:53 51°26.757 2°51.749 259.2 0.2 4 27.4
2012-04-16 10:26:53 51°26.756 2°51.748 258.4 0.4 167 28.2
2012-04-16 10:27:53 51°26.757 2°51.749 261.4 0.5 168 29.1
2012-04-16 10:28:53 51°26.757 2°51.749 260.7 0.3 338 27.7
2012-04-16 10:29:54 51°26.757 2°51.747 264.8 0.5 337 26.8
2012-04-16 10:30:53 51°26.756 2°51.747 266.8 0.2 299 27.7
2012-04-16 10:31:53 51°26.756 2°51.747 266.2 0.6 169 28.5
2012-04-16 10:32:53 51°26.757 2°51.747 266.7 0.1 268 27.8
2012-04-16 10:33:53 51°26.757 2°51.746 270.3 0.1 208 27.6
2012-04-16 10:34:53 51°26.758 2°51.745 268.6 0.5 180 27.9
2012-04-16 10:35:53 51°26.759 2°51.745 267.1 0.2 179 28.5
2012-04-16 10:36:53 51°26.758 2°51.749 261.6 0.2 63 27.4
2012-04-16 10:37:53 51°26.755 2°51.751 263.2 0.5 171 28.1
2012-04-16 10:38:54 51°26.755 2°51.75 264.1 0.1 173 27.8
2012-04-16 10:39:53 51°26.754 2°51.75 266.5 0.2 138 27.5
2012-04-16 10:40:53 51°26.755 2°51.752 265 0.4 185 28.3
2012-04-16 10:41:53 51°26.755 2°51.75 268.9 0.3 315 27.3
2012-04-16 10:42:53 51°26.754 2°51.75 265.9 0.2 160 28.2
2012-04-16 10:43:53 51°26.753 2°51.751 266.4 0.1 24 27.3
2012-04-16 10:44:53 51°26.752 2°51.751 269.6 0.1 323 27.2
2012-04-16 10:45:53 51°26.754 2°51.75 271.5 0.1 253 27.7
2012-04-16 10:46:53 51°26.754 2°51.751 271.7 0.1 10 27.8
2012-04-16 10:47:54 51°26.754 2°51.75 271.3 0.2 9 27.2
2012-04-16 10:48:53 51°26.752 2°51.752 270.6 0.3 149 27.7
2012-04-16 10:49:53 51°26.754 2°51.751 269.4 0.2 277 27.7
2012-04-16 10:50:53 51°26.754 2°51.749 270.6 0.1 264 27.5
2012-04-16 10:51:53 51°26.755 2°51.747 273.7 0.4 343 27.2
2012-04-16 10:52:53 51°26.755 2°51.747 273 0.2 70 26.7
2012-04-16 10:53:53 51°26.757 2°51.749 271.4 0.2 63 27.4
2012-04-16 10:54:53 51°26.758 2°51.746 270.7 0.2 253 28.1
2012-04-16 10:55:53 51°26.759 2°51.745 269.3 0.1 227 27.6
2012-04-16 10:56:53 51°26.76 2°51.744 268.3 0.1 325 27.4
2012-04-16 10:57:53 51°26.759 2°51.744 267.2 0.2 341 27.4
2012-04-16 10:58:54 51°26.759 2°51.743 266.4 0.3 165 27.4
2012-04-16 10:59:53 51°26.759 2°51.743 266.2 0.2 157 27.2
2012-04-16 11:00:53 51°26.759 2°51.743 263.9 0.2 181 27.1
2012-04-16 11:01:53 51°26.759 2°51.743 265.6 0.4 179 27.8
2012-04-16 11:02:53 51°26.758 2°51.744 265 0.2 95 27
2012-04-16 11:03:53 51°26.759 2°51.747 264.5 0.4 351 27.6
2012-04-16 11:04:53 51°26.759 2°51.744 266.5 0.2 265 27.5
2012-04-16 11:05:53 51°26.757 2°51.73 272.3 0.6 263 27.8
2012-04-16 11:06:53 51°26.758 2°51.719 268.7 0.2 233 27.5
2012-04-16 11:07:53 51°26.757 2°51.709 268.5 0.5 302 26.9
2012-04-16 11:08:52 51°26.753 2°51.699 261.3 0.5 274 26.9
2012-04-16 11:09:52 51°26.751 2°51.687 265 0.6 267 27.1
2012-04-16 11:10:52 51°26.752 2°51.673 271 0.6 337 26.7
2012-04-16 11:11:52 51°26.756 2°51.669 280.6 0.2 322 27
2012-04-16 11:12:52 51°26.762 2°51.67 287.8 0.6 22 26.8
2012-04-16 11:13:54 51°26.768 2°51.674 291.3 0.3 337 27.2
2012-04-16 11:14:54 51°26.786 2°51.651 304.6 2.8 317 27.1
2012-04-16 11:15:53 51°26.842 2°51.598 333.2 4.7 341 26.4
2012-04-16 11:16:53 51°26.958 2°51.592 357.9 9 1 25.1
2012-04-16 11:17:53 51°27.132 2°51.58 356.8 11.9 358 23.2
2012-04-16 11:18:53 51°27.332 2°51.592 8.1 12.5 9 22.1
2012-04-16 11:19:53 51°27.534 2°51.662 12.9 12.3 16 20.9
2012-04-16 11:20:53 51°27.738 2°51.719 8.8 12.3 7 23.4
2012-04-16 11:21:54 51°27.943 2°51.733 2.1 12.1 -999 25
2012-04-16 11:22:53 51°28.145 2°51.744 5.2 12.2 4 27.2
2012-04-16 11:23:53 51°28.346 2°51.771 6.4 12.3 6 29.4
2012-04-16 11:24:53 51°28.548 2°51.789 2.3 12.6 3 31.7
2012-04-16 11:25:53 51°28.753 2°51.803 3.8 12.5 5 30.9
2012-04-16 11:26:54 51°28.964 2°51.833 5.8 11.8 5 -999
2012-04-16 11:27:53 51°29.162 2°51.868 12.1 12.6 15 32.8
2012-04-16 11:28:53 51°29.328 2°52.059 55.1 12.5 56 32.5
2012-04-16 11:29:52 51°29.404 2°52.364 72.9 12.8 68 32.5
2012-04-16 11:30:52 51°29.487 2°52.674 68.6 12.8 67 32.4
2012-04-16 11:31:52 51°29.575 2°52.982 67.6 12.3 64 32.1
2012-04-16 11:32:52 51°29.657 2°53.292 70.9 12.9 67 33.6
2012-04-16 11:33:52 51°29.738 2°53.607 68.3 12.7 65 32.6
2012-04-16 11:34:54 51°29.828 2°53.924 69.2 12.6 65 32.5
2012-04-16 11:35:53 51°29.906 2°54.228 71 12.8 66 33.8
2012-04-16 11:36:53 51°29.986 2°54.542 69 12.6 66 34.1
2012-04-16 11:37:53 51°30.071 2°54.853 69 12.8 64 35
2012-04-16 11:38:53 51°30.157 2°55.159 69.1 12.6 66 34.7
2012-04-16 11:39:53 51°30.238 2°55.47 69.9 12.6 67 34.4
2012-04-16 11:40:53 51°30.321 2°55.779 69.9 12.4 67 34.4
2012-04-16 11:41:53 51°30.405 2°56.088 69.6 12.7 68 32.8
2012-04-16 11:42:53 51°30.494 2°56.396 68.7 12.7 65 33.1
2012-04-16 11:43:53 51°30.578 2°56.707 69.2 12.5 69 32.2
2012-04-16 11:44:53 51°30.66 2°57.014 69.1 12.5 68 31.9
2012-04-16 11:45:53 51°30.746 2°57.326 68.6 12.6 67 31.6
2012-04-16 11:46:53 51°30.829 2°57.637 70.5 12.6 68 31.4
2012-04-16 11:47:53 51°30.913 2°57.95 68.9 12.7 68 30.7
2012-04-16 11:48:53 51°30.996 2°58.261 70.3 12.7 67 31.3
2012-04-16 11:49:53 51°31.082 2°58.568 64.7 12.3 61 29.8
2012-04-16 11:50:53 51°31.205 2°58.76 31.6 9.6 28 30.4
2012-04-16 11:51:52 51°31.344 2°58.815 4.5 8.3 5 30.4
2012-04-16 11:52:53 51°31.482 2°58.817 0.5 7.3 2 30.4
2012-04-16 11:53:53 51°31.576 2°58.825 357.9 4.5 1 31.4
2012-04-16 11:54:52 51°31.634 2°58.824 350.7 2.7 357 31.6
2012-04-16 11:55:52 51°31.674 2°58.822 353.1 2.7 358 31.7
2012-04-16 11:56:52 51°31.747 2°58.798 338.3 6.9 340 30.9
2012-04-16 11:57:52 51°31.855 2°58.684 317.1 8.3 319 35.8
2012-04-16 11:58:53 51°31.956 2°58.536 316.9 7.3 318 38.6
2012-04-16 11:59:53 51°32.05 2°58.413 318.8 7 322 36.6
2012-04-16 12:00:53 51°32.142 2°58.288 314.4 7.3 317 32.7
2012-04-16 12:01:53 51°32.223 2°58.16 313.1 6.7 318 21.7
2012-04-16 12:02:53 51°32.307 2°58.038 313.7 6.6 319 16.2
2012-04-16 12:03:53 51°32.39 2°57.918 314.9 6.8 318 18
2012-04-16 12:04:54 51°32.476 2°57.791 313.1 7 316 18.3
2012-04-16 12:05:53 51°32.562 2°57.668 315.5 7.1 320 19.1
2012-04-16 12:06:52 51°32.652 2°57.544 315.6 7.2 317 19.3
2012-04-16 12:07:53 51°32.749 2°57.422 321.8 7.3 323 21.4
2012-04-16 12:08:53 51°32.83 2°57.279 305.5 7.3 304 24.4
2012-04-16 12:09:53 51°32.9 2°57.125 305.9 7.1 309 24.3
2012-04-16 12:10:53 51°32.963 2°56.984 302 6.2 303 26.2
2012-04-16 12:11:53 51°33.015 2°56.863 303.4 5.3 307 25.1
2012-04-16 12:12:53 51°33.069 2°56.748 306.4 4.9 303 26.9
2012-04-16 12:13:53 51°33.089 2°56.664 273.6 2.8 280 25.9
2012-04-16 12:14:53 51°33.096 2°56.594 283.2 3.1 292 25.5
2012-04-16 12:15:53 51°33.125 2°56.515 302.7 3.6 303 27.8
2012-04-16 12:16:53 51°33.158 2°56.434 303.5 3.7 300 28.4
2012-04-16 12:17:53 51°33.19 2°56.348 294 3.8 291 27.5
2012-04-16 12:18:53 51°33.213 2°56.253 295.2 3.6 299 26.8
2012-04-16 12:19:53 51°33.257 2°56.21 354.9 3.2 -999 27.1
2012-04-16 12:20:53 51°33.299 2°56.253 64.1 3 60 28.5
2012-04-16 12:21:53 51°33.32 2°56.335 71.7 3.5 65 28.7
2012-04-16 12:22:53 51°33.343 2°56.422 76.8 3.3 78 27
2012-04-16 12:23:53 51°33.346 2°56.515 92.7 3.6 86 28.5
2012-04-16 12:24:53 51°33.347 2°56.609 111.1 3.4 105 27.4
2012-04-16 12:25:53 51°33.314 2°56.652 175.6 2.4 171 27.2
2012-04-16 12:26:53 51°33.284 2°56.635 217.8 1.7 210 27.4
2012-04-16 12:27:53 51°33.271 2°56.609 234.5 1 233 27.9
2012-04-16 12:28:53 51°33.261 2°56.577 242.9 1.5 252 28.3
2012-04-16 12:29:53 51°33.251 2°56.528 256.7 2.4 266 26.8
2012-04-16 12:30:53 51°33.245 2°56.461 262.8 2.5 264 26.9
2012-04-16 12:31:53 51°33.242 2°56.396 265.7 2.2 261 27.6
2012-04-16 12:32:53 51°33.241 2°56.341 265.7 1.9 249 29.1
2012-04-16 12:33:53 51°33.239 2°56.292 268.2 1.6 262 27.7
2012-04-16 12:34:53 51°33.239 2°56.244 269.8 1.7 262 27.4
2012-04-16 12:35:53 51°33.238 2°56.2 270.4 1.7 260 27.9
2012-04-16 12:36:53 51°33.237 2°56.157 271.5 1.5 280 28.3
2012-04-16 12:37:53 51°33.236 2°56.125 275.7 1.1 281 28.5
2012-04-16 12:38:53 51°33.245 2°56.081 307.2 2 301 28.2
2012-04-16 12:39:53 51°33.276 2°56.049 352.5 2.2 349 28
2012-04-16 12:40:53 51°33.307 2°56.069 55.9 1.9 58 28.4
2012-04-16 12:41:53 51°33.312 2°56.092 89.4 0.5 111 27.2
2012-04-16 12:42:53 51°33.311 2°56.104 92.4 0.3 72 26.7
2012-04-16 12:43:53 51°33.309 2°56.108 86.2 0.3 147 26.9
2012-04-16 12:44:53 51°33.306 2°56.12 79.4 1.2 95 27
2012-04-16 12:45:53 51°33.318 2°56.186 76.5 3.5 77 28.7
2012-04-16 12:46:53 51°33.332 2°56.294 85.2 4.6 83 28.2
2012-04-16 12:47:53 51°33.329 2°56.425 111.8 5 104 27.6
2012-04-16 12:48:53 51°33.312 2°56.546 95.3 4.6 92 27.9
2012-04-16 12:49:53 51°33.297 2°56.659 118.2 4.3 117 27.3
2012-04-16 12:50:53 51°33.25 2°56.795 120.6 7.1 120 27.3
2012-04-16 12:51:53 51°33.2 2°56.95 124.9 5.4 113 23
2012-04-16 12:52:53 51°33.157 2°57.032 135.8 3.3 132 20.4
2012-04-16 12:53:53 51°33.126 2°57.087 131.5 2.5 124 19.3
2012-04-16 12:54:53 51°33.098 2°57.123 161.2 2 168 23.7
2012-04-16 12:55:53 51°33.067 2°57.117 206.2 2 206 22.7
2012-04-16 12:56:53 51°33.043 2°57.076 228.1 2.3 226 24.1
2012-04-16 12:57:53 51°33.025 2°57.018 245.4 2.5 249 25.1
2012-04-16 12:58:53 51°33.019 2°56.953 260 2.5 266 25.2
2012-04-16 12:59:53 51°33.017 2°56.894 263.6 2.1 264 24.8
2012-04-16 13:00:53 51°33.015 2°56.838 264.3 2.2 271 25
2012-04-16 13:01:53 51°33.011 2°56.782 264.4 2.1 260 24.5
2012-04-16 13:02:53 51°33.008 2°56.725 267.9 2.2 264 24.4
2012-04-16 13:03:53 51°33.007 2°56.666 272.1 2.1 268 24.4
2012-04-16 13:04:53 51°33.005 2°56.607 272 2.3 277 24.4
2012-04-16 13:05:53 51°33.004 2°56.548 274.6 2.2 275 24.4
2012-04-16 13:06:53 51°33.003 2°56.489 276.3 2.3 271 23.9
2012-04-16 13:07:53 51°33.005 2°56.426 279.7 2.4 274 25.7
2012-04-16 13:08:53 51°33.009 2°56.363 284.6 2.4 277 26.8
2012-04-16 13:09:53 51°33.013 2°56.311 296.7 1.7 281 26.3
2012-04-16 13:10:53 51°33.02 2°56.272 313.1 1.5 294 26.7
2012-04-16 13:11:53 51°33.029 2°56.242 327.9 0.9 295 26.9
2012-04-16 13:12:53 51°33.044 2°56.222 356.5 1.9 351 26.6
2012-04-16 13:13:53 51°33.07 2°56.269 81.2 3.1 84 25.6
2012-04-16 13:14:53 51°33.058 2°56.384 100.7 5.3 100 25.4
2012-04-16 13:15:53 51°33.029 2°56.584 106.2 8.9 110 25
2012-04-16 13:16:53 51°32.996 2°56.82 105.5 9.2 101 22.9
2012-04-16 13:17:53 51°32.945 2°57.054 115.6 9.3 109 24.1
2012-04-16 13:18:53 51°32.861 2°57.256 127.4 8.9 123 22.6
2012-04-16 13:19:53 51°32.801 2°57.462 111.1 8.1 104 18.5
2012-04-16 13:20:53 51°32.78 2°57.639 100.3 5.4 94 20
2012-04-16 13:21:53 51°32.769 2°57.764 111.4 4.2 114 17.9
2012-04-16 13:22:52 51°32.721 2°57.815 163.7 3.2 165 15.2
2012-04-16 13:23:52 51°32.679 2°57.808 197.7 2.2 200 18.3
2012-04-16 13:24:52 51°32.652 2°57.78 216 1.7 211 19.8
2012-04-16 13:25:53 51°32.633 2°57.746 230.6 1.6 229 18.6
2012-04-16 13:26:52 51°32.619 2°57.707 241.4 1.8 235 18
2012-04-16 13:27:53 51°32.606 2°57.66 252.1 1.9 250 16.2
2012-04-16 13:28:52 51°32.598 2°57.611 260.2 2 261 18.6
2012-04-16 13:29:52 51°32.594 2°57.561 264 2.1 253 19
2012-04-16 13:30:52 51°32.561 2°57.51 188.7 3.6 191 19.6
2012-04-16 13:31:53 51°32.502 2°57.603 120.6 7.9 127 19.9
2012-04-16 13:32:53 51°32.437 2°57.856 116.2 11.1 111 16.6
2012-04-16 13:33:53 51°32.351 2°58.134 120.4 11.9 116 16.6
2012-04-16 13:34:53 51°32.232 2°58.37 146.4 12.2 146 29.7
2012-04-16 13:35:53 51°32.05 2°58.501 164.8 12 169 36.8
2012-04-16 13:36:53 51°31.854 2°58.433 206.8 12.6 207 35.6
2012-04-16 13:37:53 51°31.713 2°58.188 230.8 12.7 231 34.9
2012-04-16 13:38:53 51°31.564 2°57.953 222.3 12.6 227 34.3
2012-04-16 13:39:53 51°31.408 2°57.726 222.5 12.9 220 34.3
2012-04-16 13:40:53 51°31.252 2°57.497 222.9 12.4 221 31.8
2012-04-16 13:41:53 51°31.101 2°57.249 226.5 13 226 31.1
2012-04-16 13:42:53 51°30.948 2°57.003 223.4 12.9 225 31
2012-04-16 13:43:53 51°30.797 2°56.76 224.3 13.2 224 31.6
2012-04-16 13:44:53 51°30.645 2°56.515 224.9 13 223 31.8
2012-04-16 13:45:53 51°30.509 2°56.253 240.4 12.5 242 31.5
2012-04-16 13:46:53 51°30.465 2°55.917 265.2 13.1 265 32.5
2012-04-16 13:47:53 51°30.449 2°55.573 272.9 13 269 34.7
2012-04-16 13:48:53 51°30.529 2°55.272 315 12.4 312 36.7
2012-04-16 13:49:53 51°30.702 2°55.145 357.2 11.7 351 35.5
2012-04-16 13:50:53 51°30.892 2°55.1 4.3 11.5 -999 20.9
2012-04-16 13:51:53 51°31.086 2°55.071 356.8 11.5 352 17.8
2012-04-16 13:52:53 51°31.17 2°54.981 295.6 4.1 284 19.6
2012-04-16 13:53:53 51°31.155 2°54.893 225.8 3.3 232 17.8
2012-04-16 13:54:53 51°31.112 2°54.869 171.8 2.7 181 15.8
2012-04-16 13:55:53 51°31.074 2°54.864 171.4 2.2 184 18.6
2012-04-16 13:56:53 51°31.037 2°54.853 181.5 2.2 189 18.9
2012-04-16 13:57:53 51°31.001 2°54.828 198.6 2.5 211 15
2012-04-16 13:58:53 51°30.97 2°54.791 215.2 2.4 221 19.2
2012-04-16 13:59:53 51°30.945 2°54.747 231 2.2 237 16.1
2012-04-16 14:00:53 51°30.922 2°54.7 242.6 2.2 236 19.2
2012-04-16 14:01:53 51°30.907 2°54.651 252.9 2.1 242 18.3
2012-04-16 14:02:53 51°30.893 2°54.601 261.6 1.9 268 18.4
2012-04-16 14:03:53 51°30.883 2°54.552 269.4 1.9 255 19.4
2012-04-16 14:04:53 51°30.885 2°54.457 289.9 7.1 289 18.7
2012-04-16 14:05:52 51°30.977 2°54.291 336.5 9 333 19.5
2012-04-16 14:06:53 51°31.122 2°54.211 346.2 9.5 340 19.5
2012-04-16 14:07:52 51°31.272 2°54.156 351.5 9.4 346 19.9
2012-04-16 14:08:53 51°31.427 2°54.089 349.9 9.3 346 20.4
2012-04-16 14:09:53 51°31.579 2°54.023 353.3 9.6 351 20.5
2012-04-16 14:10:53 51°31.696 2°53.97 348.9 5.3 342 19.2
2012-04-16 14:11:53 51°31.742 2°53.901 297.9 3.5 285 20.2
2012-04-16 14:12:52 51°31.728 2°53.807 229.2 4.4 227 19.8
2012-04-16 14:13:53 51°31.666 2°53.769 185.5 3.3 196 22.6
2012-04-16 14:14:53 51°31.621 2°53.75 189.4 2.8 200 21.7
2012-04-16 14:15:53 51°31.58 2°53.723 206.3 2.6 215 20.7
2012-04-16 14:16:53 51°31.545 2°53.683 223 2.5 215 22.2
2012-04-16 14:17:53 51°31.519 2°53.637 237.3 2.2 236 17.5
2012-04-16 14:18:53 51°31.499 2°53.59 247.4 2.1 253 20.6
2012-04-16 14:19:53 51°31.482 2°53.543 256.3 2 241 21
2012-04-16 14:20:52 51°31.469 2°53.496 264.9 1.9 246 21.1
2012-04-16 14:21:52 51°31.459 2°53.45 270.8 1.7 243 19.9
2012-04-16 14:22:53 51°31.449 2°53.404 273.2 1.9 256 20.2
2012-04-16 14:23:52 51°31.439 2°53.37 278.4 1.1 226 21.7
2012-04-16 14:24:53 51°31.427 2°53.35 276.2 1.1 219 21.5
2012-04-16 14:25:52 51°31.418 2°53.319 286.9 2 265 21.5
2012-04-16 14:26:53 51°31.446 2°53.262 353.6 3.6 345 21.7
2012-04-16 14:27:52 51°31.562 2°53.22 349.3 9.7 341 21.4
2012-04-16 14:28:52 51°31.72 2°53.126 346 10.1 339 18.8
2012-04-16 14:29:53 51°31.88 2°53.018 343.4 10.4 338 21.1
2012-04-16 14:30:52 51°32.037 2°52.92 341.9 10.2 334 25.3
2012-04-16 14:31:53 51°32.185 2°52.783 334 9.8 326 21.4
2012-04-16 14:32:52 51°32.252 2°52.658 295.1 4.5 281 24.9
2012-04-16 14:33:53 51°32.23 2°52.552 232.8 3.9 227 23.6
2012-04-16 14:34:52 51°32.193 2°52.482 230.8 3.3 225 25.5
2012-04-16 14:35:53 51°32.159 2°52.413 237.1 3.4 228 26.9
2012-04-16 14:36:52 51°32.131 2°52.336 250.8 3.5 236 25.3
2012-04-16 14:37:52 51°32.11 2°52.252 262.2 3.5 246 27.1
2012-04-16 14:38:53 51°32.095 2°52.164 271.9 3.4 254 26.7
2012-04-16 14:39:52 51°32.085 2°52.076 277.3 3.5 256 27.3
2012-04-16 14:40:53 51°32.081 2°51.988 286.2 3.2 268 27.1
2012-04-16 14:41:52 51°32.079 2°51.905 291.9 2.8 273 26.6
2012-04-16 14:42:52 51°32.082 2°51.826 300.6 3 275 27.5
2012-04-16 14:43:52 51°32.091 2°51.749 309.2 2.9 282 27.9
2012-04-16 14:44:52 51°32.102 2°51.678 315.5 2.8 284 28.2
2012-04-16 14:45:52 51°32.108 2°51.618 317.4 2 271 27.8
2012-04-16 14:46:52 51°32.106 2°51.572 316.1 1.7 258 26.2
2012-04-16 14:47:53 51°32.096 2°51.534 312 1.5 255 28
2012-04-16 14:48:53 51°32.085 2°51.461 253.4 4.2 241 29.7
2012-04-16 14:49:53 51°32 2°51.427 159 7.6 166 26.6
2012-04-16 14:50:53 51°31.87 2°51.556 140.3 10 142 23.7
2012-04-16 14:51:53 51°31.733 2°51.712 140.6 10.4 146 26.5
2012-04-16 14:52:52 51°31.594 2°51.866 140.9 10.2 140 25.3
2012-04-16 14:53:52 51°31.475 2°52.056 125.7 9.9 124 22.2
2012-04-16 14:54:53 51°31.352 2°52.249 134 10.5 138 21.9
2012-04-16 14:55:52 51°31.239 2°52.381 153.4 6.5 159 21
2012-04-16 14:56:52 51°31.186 2°52.463 92 3.6 94 21.8
2012-04-16 14:57:53 51°31.218 2°52.508 5.3 2.7 350 21.2
2012-04-16 14:58:53 51°31.233 2°52.481 347.6 0.8 233 18.8
2012-04-16 14:59:53 51°31.221 2°52.458 344 1.3 221 21.4
2012-04-16 15:00:53 51°31.207 2°52.44 335.2 0.8 226 21
2012-04-16 15:01:52 51°31.203 2°52.437 22.6 0.3 350 21.5
2012-04-16 15:02:53 51°31.206 2°52.439 35.1 0.3 110 21.9
2012-04-16 15:03:52 51°31.205 2°52.439 41.5 0.2 151 22.2
2012-04-16 15:04:53 51°31.203 2°52.439 39.6 0.3 257 21.7
2012-04-16 15:05:53 51°31.202 2°52.438 32.8 0.3 322 21.5
2012-04-16 15:06:53 51°31.205 2°52.435 26.1 0.4 298 21.8
2012-04-16 15:07:53 51°31.204 2°52.433 31.8 0.3 146 21.9
2012-04-16 15:08:52 51°31.204 2°52.434 39.6 0.3 102 21.3
2012-04-16 15:09:52 51°31.205 2°52.436 36.4 0.3 52 22
2012-04-16 15:10:52 51°31.206 2°52.436 34.8 0.3 283 21.5
2012-04-16 15:11:52 51°31.203 2°52.436 34.7 0.2 87 21.4
2012-04-16 15:12:53 51°31.204 2°52.437 36 0.2 1 21.4
2012-04-16 15:13:53 51°31.204 2°52.436 35.6 0.2 229 22.1
2012-04-16 15:14:52 51°31.204 2°52.434 35.7 0.1 68 21.6
2012-04-16 15:15:53 51°31.206 2°52.435 35.7 0.2 317 22
2012-04-16 15:16:53 51°31.205 2°52.436 38 0.1 249 21.3
2012-04-16 15:17:53 51°31.204 2°52.436 39.1 0.2 334 21.8
2012-04-16 15:18:53 51°31.204 2°52.437 35.2 0.2 334 21.7
2012-04-16 15:19:53 51°31.206 2°52.435 34.3 0.4 305 22.1
2012-04-16 15:20:53 51°31.205 2°52.434 34.6 0.2 18 22
2012-04-16 15:21:52 51°31.206 2°52.435 37.8 0.2 125 21.5
2012-04-16 15:22:53 51°31.204 2°52.436 42.5 0.2 27 21.7
2012-04-16 15:23:52 51°31.204 2°52.437 39.7 0.2 336 21.8
2012-04-16 15:24:53 51°31.203 2°52.439 41.5 0.3 148 22.3
2012-04-16 15:25:53 51°31.203 2°52.439 35.3 0.3 306 21.5
2012-04-16 15:26:53 51°31.205 2°52.436 31.2 0.1 165 22
2012-04-16 15:27:52 51°31.204 2°52.434 32.7 0.2 275 21.7
2012-04-16 15:28:52 51°31.205 2°52.435 34.9 0.2 332 21.8
2012-04-16 15:29:52 51°31.204 2°52.436 39.3 0.2 254 21.4
2012-04-16 15:30:52 51°31.203 2°52.436 38.8 0.1 67 21.8
2012-04-16 15:31:53 51°31.204 2°52.436 35.1 0.2 99 21
2012-04-16 15:32:52 51°31.203 2°52.438 39.5 0.2 105 21.5
2012-04-16 15:33:53 51°31.203 2°52.438 35.4 0.2 207 21.8
2012-04-16 15:34:52 51°31.203 2°52.438 31.5 0.1 318 21.8
2012-04-16 15:35:53 51°31.204 2°52.437 30.6 0.2 328 21.8
2012-04-16 15:36:53 51°31.209 2°52.441 33.2 0.7 53 21.9
2012-04-16 15:37:52 51°31.215 2°52.446 32.2 0.3 44 21.3
2012-04-16 15:38:53 51°31.222 2°52.45 32 0.6 23 21.3
2012-04-16 15:39:53 51°31.226 2°52.453 34.2 -999 309 20.9
2012-04-16 15:40:53 51°31.221 2°52.448 37.1 0.7 209 21.4
2012-04-16 15:41:53 51°31.208 2°52.439 42.7 1 193 22
2012-04-16 15:42:53 51°31.196 2°52.445 73.2 1.5 118 22.3
2012-04-16 15:43:52 51°31.152 2°52.49 157.6 4.9 173 20
2012-04-16 15:44:53 51°31.011 2°52.503 167.4 11 173 20.9
2012-04-16 15:45:52 51°30.807 2°52.548 170.9 13.4 172 18.5
2012-04-16 15:46:52 51°30.59 2°52.548 179.3 13.3 186 22.2
2012-04-16 15:47:52 51°30.374 2°52.51 183.5 12.8 186 27.8
2012-04-16 15:48:52 51°30.159 2°52.474 181.8 13.1 185 29.8
2012-04-16 15:49:52 51°29.941 2°52.442 182.1 13.1 188 29.1
2012-04-16 15:50:52 51°29.719 2°52.406 181.7 13.7 186 29.7
2012-04-16 15:51:52 51°29.502 2°52.364 181.8 13 182 30.3
2012-04-16 15:52:52 51°29.283 2°52.338 178.2 13.3 185 30.3
2012-04-16 15:53:52 51°29.067 2°52.298 183.7 12.6 184 30
2012-04-16 15:54:53 51°28.848 2°52.265 178.6 12.8 185 28.9
2012-04-16 15:55:52 51°28.635 2°52.229 182.5 12.9 187 28.3
2012-04-16 15:56:53 51°28.413 2°52.192 181.2 12.8 186 26.4
2012-04-16 15:57:53 51°28.192 2°52.158 177.8 13.3 185 24.6
2012-04-16 15:58:52 51°27.975 2°52.132 180.4 13.2 185 22.9
2012-04-16 15:59:52 51°27.753 2°52.098 180.8 13.3 186 21.1
2012-04-16 16:00:53 51°27.529 2°52.072 178.8 13.4 181 20.3
2012-04-16 16:01:52 51°27.313 2°52.06 177.7 13.2 181 21
2012-04-16 16:02:53 51°27.089 2°52.035 178.8 13.3 186 20.1
2012-04-16 16:03:52 51°26.869 2°52.007 180.6 13.5 186 26.3
2012-04-16 16:04:52 51°26.651 2°51.963 181.2 13.2 186 27.2
2012-04-16 16:05:52 51°26.43 2°51.928 181.3 14.1 188 25.4
2012-04-16 16:06:52 51°26.209 2°51.888 180.4 12.8 186 25.1
2012-04-16 16:07:52 51°25.988 2°51.853 179.4 13.4 188 27.3
2012-04-16 16:08:52 51°25.768 2°51.827 177.2 13.4 180 31.3
2012-04-16 16:09:52 51°25.549 2°51.803 180.7 13.3 184 26.7
2012-04-16 16:10:53 51°25.323 2°51.762 181.5 14 184 23.4
2012-04-16 16:11:52 51°25.107 2°51.719 182.4 13 185 22.3
2012-04-16 16:12:52 51°24.886 2°51.674 183.2 13.2 189 22.4
2012-04-16 16:13:52 51°24.665 2°51.643 172.9 13.4 177 22.1
2012-04-16 16:14:53 51°24.443 2°51.65 171.3 12.9 178 21.1
2012-04-16 16:15:52 51°24.228 2°51.669 172.5 13.1 180 19.8
2012-04-16 16:16:52 51°24.009 2°51.668 176.1 13.3 181 19.6
2012-04-16 16:17:52 51°23.79 2°51.67 175.1 13 178 17.5
2012-04-16 16:18:52 51°23.571 2°51.679 174.6 13.2 184 15.3
2012-04-16 16:19:52 51°23.355 2°51.692 170.5 12.9 172 15.4
2012-04-16 16:20:52 51°23.136 2°51.701 173.6 13.2 183 19.7
2012-04-16 16:21:53 51°22.913 2°51.702 173.1 13 179 22.4
2012-04-16 16:22:52 51°22.696 2°51.708 173.6 13.4 179 22.9
2012-04-16 16:23:53 51°22.474 2°51.712 174.8 13.2 181 22.9
2012-04-16 16:24:52 51°22.258 2°51.689 179 12.9 182 23.4
2012-04-16 16:25:53 51°22.035 2°51.666 179.6 12.8 188 23.4
2012-04-16 16:26:52 51°21.821 2°51.647 176.7 13.3 182 24.2
2012-04-16 16:27:53 51°21.595 2°51.623 177 13.7 182 23.7
2012-04-16 16:28:52 51°21.377 2°51.6 175.7 13.1 184 21.7
2012-04-16 16:29:52 51°21.153 2°51.589 176.5 13.3 186 19.7
2012-04-16 16:30:53 51°20.928 2°51.57 175.3 13.4 182 17.3
2012-04-16 16:31:52 51°20.713 2°51.582 170 12.9 175 14.7
2012-04-16 16:32:53 51°20.494 2°51.601 172.7 12.6 176 14.2
2012-04-16 16:33:52 51°20.283 2°51.613 172.2 13 177 12.8
2012-04-16 16:34:53 51°20.064 2°51.636 173.3 13.3 179 13.9
2012-04-16 16:35:52 51°19.849 2°51.652 174.3 12.7 180 14.6
2012-04-16 16:36:53 51°19.626 2°51.674 167.7 13.6 171 15.4
2012-04-16 16:37:52 51°19.412 2°51.721 164.1 13.2 170 15.5
2012-04-16 16:38:53 51°19.19 2°51.775 166.6 13.3 170 15.3
2012-04-16 16:39:52 51°18.976 2°51.822 168.4 13.7 173 14.4
2012-04-16 16:40:52 51°18.761 2°51.87 167.9 12.9 172 13.1
2012-04-16 16:41:52 51°18.544 2°51.902 169.8 13.1 174 12.2
2012-04-16 16:42:52 51°18.329 2°51.947 166.9 12.7 173 11.3
2012-04-16 16:43:52 51°18.114 2°51.996 165.6 13.6 173 10.9
2012-04-16 16:44:52 51°17.896 2°52.03 168.1 12.8 175 10.6
2012-04-16 16:45:52 51°17.68 2°52.079 166.2 12.4 174 10.8
2012-04-16 16:46:53 51°17.46 2°52.143 162.9 13.3 168 11.1
2012-04-16 16:47:52 51°17.253 2°52.226 156.8 12.6 160 11.1
2012-04-16 16:48:52 51°17.062 2°52.364 148.5 12.6 154 9.9
2012-04-16 16:49:53 51°16.87 2°52.513 149.5 12.2 153 9.9
2012-04-16 16:50:52 51°16.676 2°52.641 155.7 13.5 160 10.9
2012-04-16 16:51:52 51°16.487 2°52.787 146.9 12.3 149 11.8
2012-04-16 16:52:52 51°16.317 2°52.958 141.3 10.6 147 12.2
2012-04-16 16:53:53 51°16.179 2°53.086 146.4 8.8 151 12.7
2012-04-16 16:54:53 51°16.052 2°53.185 143.3 7.9 152 12.6
2012-04-16 16:55:54 51°15.929 2°53.296 140.8 9.2 146 12.4
2012-04-16 16:56:52 51°15.794 2°53.433 139.1 10.1 144 11.9
2012-04-16 16:57:52 51°15.672 2°53.556 139.4 7.9 150 11.3
2012-04-16 16:58:52 51°15.559 2°53.672 136.8 8 147 10.8
2012-04-16 16:59:53 51°15.447 2°53.801 134.5 8.3 140 10.5
2012-04-16 17:00:52 51°15.336 2°53.94 130.9 8.6 139 9.6
2012-04-16 17:01:53 51°15.216 2°54.088 134.8 9.5 143 9.2
2012-04-16 17:02:52 51°15.088 2°54.24 138.7 10 146 8.7
2012-04-16 17:03:53 51°14.95 2°54.42 137.7 11 144 9.2
2012-04-16 17:04:53 51°14.809 2°54.609 133.7 11 137 5
2012-04-16 17:05:53 51°14.67 2°54.8 131.2 10.7 138 11
2012-04-16 17:06:56 51°14.525 2°54.999 133.3 11.2 138 -999
2012-04-16 17:07:56 51°14.387 2°55.18 146.6 9.9 149 10.1
2012-04-16 17:08:56 51°14.262 2°55.309 148.5 8.4 148 -999
2012-04-16 17:09:56 51°14.145 2°55.402 154.4 7.3 154 -999
2012-04-16 17:10:56 51°14.046 2°55.477 155.5 6.3 154 -999
2012-04-16 17:11:56 51°13.957 2°55.539 156.4 5.4 154 -999
2012-04-16 17:12:56 51°13.869 2°55.604 156.4 6.1 157 -999
2012-04-16 17:13:56 51°13.783 2°55.68 145.3 5.4 143 -999
2012-04-16 17:14:56 51°13.725 2°55.768 133.9 4.6 133 -999
2012-04-16 17:15:56 51°13.679 2°55.86 127.2 4.1 127 -999
2012-04-16 17:16:56 51°13.648 2°55.945 112.6 3.5 112 -999
2012-04-16 17:17:56 51°13.637 2°56.01 106.2 1 115 -999